Time;durP1;ratioP1;P1;durP2;ratioP2;P2;SDS_P1;SDS_P2;PMS_P1;PMS_P2;Temp;Humidity;BMP_temperature;BMP_pressure;BME280_temperature;BME280_humidity;BME280_pressure;Samples;Min_cycle;Max_cycle;Signal;HPM_P1;HPM_P2
2023/08/20 00:11:46;;;;;;;18.17;14.27;;;;;;;;;;2581295;23;20251;-96
2023/08/20 00:19:20;;;;;;;15.82;13.45;;;;;;;;;;2603445;22;20024;-94
2023/08/20 00:21:05;;;;;;;16.73;13.82;;;;;;;;;;2606222;22;20031;-96
2023/08/20 01:14:36;;;;;;;15.73;13.30;;;;;;;;;;2601738;22;20015;-96
2023/08/20 01:17:10;;;;;;;18.67;14.05;;;;;;;;;;2574854;22;20019;-96
2023/08/20 01:20:59;;;;;;;15.75;13.43;;;;;;;;;;2597007;22;20016;-96
2023/08/20 01:23:30;;;;;;;17.30;13.50;;;;;;;;;;2592948;23;20014;-96
2023/08/20 01:24:33;;;;;;;16.50;13.15;;;;;;;;;;2589762;23;20036;-96
2023/08/20 01:33:54;;;;;;;15.20;13.38;;;;;;;;;;2602260;22;20471;-96
2023/08/20 01:39:57;;;;;;;15.95;13.55;;;;;;;;;;2588595;22;20469;-96
2023/08/20 01:40:59;;;;;;;16.65;13.35;;;;;;;;;;2598534;22;20022;-95
2023/08/20 01:42:00;;;;;;;16.95;13.00;;;;;;;;;;2590021;22;20004;-96
2023/08/20 01:43:01;;;;;;;16.13;13.20;;;;;;;;;;2589387;22;20000;-95
2023/08/20 01:44:02;;;;;;;15.45;13.65;;;;;;;;;;2604990;22;20016;-95
2023/08/20 01:45:05;;;;;;;16.10;12.77;;;;;;;;;;2607505;22;20010;-96
2023/08/20 01:46:09;;;;;;;18.20;13.68;;;;;;;;;;2602760;22;20034;-96
2023/08/20 01:47:10;;;;;;;15.75;13.32;;;;;;;;;;2585485;22;20034;-96
2023/08/20 01:48:10;;;;;;;18.45;13.45;;;;;;;;;;2583634;22;20008;-96
2023/08/20 01:49:10;;;;;;;17.20;13.45;;;;;;;;;;2584281;23;20027;-96
2023/08/20 02:05:42;;;;;;;19.88;13.73;;;;;;;;;;2577627;23;20013;-96
2023/08/20 02:06:43;;;;;;;13.98;12.48;;;;;;;;;;2575589;23;20033;-96
2023/08/20 02:07:43;;;;;;;15.18;12.98;;;;;;;;;;2566981;23;19997;-96
2023/08/20 02:08:44;;;;;;;17.00;13.63;;;;;;;;;;2565865;23;19997;-95
2023/08/20 02:09:45;;;;;;;15.70;13.05;;;;;;;;;;2553630;23;20008;-96
2023/08/20 02:12:40;;;;;;;14.13;12.65;;;;;;;;;;2576743;23;20005;-96
2023/08/20 02:22:55;;;;;;;14.10;11.75;;;;;;;;;;2577448;22;20027;-96
2023/08/20 02:23:56;;;;;;;15.70;12.40;;;;;;;;;;2586660;23;20016;-96
2023/08/20 02:24:56;;;;;;;15.75;12.30;;;;;;;;;;2574794;23;20018;-96
2023/08/20 02:27:13;;;;;;;14.70;12.75;;;;;;;;;;2567221;22;20288;-95
2023/08/20 02:30:08;;;;;;;15.57;12.35;;;;;;;;;;2605649;22;20007;-96
2023/08/20 02:33:32;;;;;;;14.32;12.82;;;;;;;;;;2589916;22;20016;-96
2023/08/20 02:34:33;;;;;;;16.30;12.75;;;;;;;;;;2577523;23;20122;-96
2023/08/20 02:45:42;;;;;;;15.80;12.03;;;;;;;;;;2573365;22;20020;-95
2023/08/20 02:46:44;;;;;;;14.93;12.40;;;;;;;;;;2599776;22;20778;-95
2023/08/20 02:47:45;;;;;;;18.25;13.32;;;;;;;;;;2599319;22;20449;-96
2023/08/20 02:48:45;;;;;;;15.43;12.23;;;;;;;;;;2571404;23;20004;-96
2023/08/20 02:49:46;;;;;;;15.27;12.20;;;;;;;;;;2570675;23;20083;-96
2023/08/20 02:50:46;;;;;;;14.13;11.68;;;;;;;;;;2573750;23;20032;-95
2023/08/20 02:51:47;;;;;;;16.02;12.00;;;;;;;;;;2585011;23;20012;-95
2023/08/20 02:52:47;;;;;;;18.23;13.10;;;;;;;;;;2598309;22;20007;-95
2023/08/20 02:53:48;;;;;;;16.23;13.05;;;;;;;;;;2584895;23;20060;-96
2023/08/20 02:54:48;;;;;;;14.50;12.38;;;;;;;;;;2571280;23;20024;-96
2023/08/20 02:55:49;;;;;;;15.98;12.98;;;;;;;;;;2570469;23;20031;-95
2023/08/20 02:56:49;;;;;;;14.70;11.60;;;;;;;;;;2582330;23;19996;-96
2023/08/20 02:57:49;;;;;;;15.57;13.50;;;;;;;;;;2582839;23;20004;-96
2023/08/20 02:58:50;;;;;;;14.02;12.45;;;;;;;;;;2570105;23;20019;-96
2023/08/20 02:59:50;;;;;;;16.05;12.48;;;;;;;;;;2583549;23;20003;-95
2023/08/20 03:00:51;;;;;;;13.70;11.57;;;;;;;;;;2582327;23;20003;-95
2023/08/20 03:01:57;;;;;;;16.98;12.55;;;;;;;;;;2569947;23;20062;-96
2023/08/20 03:02:58;;;;;;;14.80;12.43;;;;;;;;;;2571341;23;19997;-96
2023/08/20 03:03:58;;;;;;;15.60;12.88;;;;;;;;;;2582673;23;20121;-95
2023/08/20 03:04:58;;;;;;;15.40;12.57;;;;;;;;;;2595396;22;20018;-95
2023/08/20 03:05:59;;;;;;;14.35;12.40;;;;;;;;;;2582763;23;20353;-95
2023/08/20 03:06:59;;;;;;;14.65;12.63;;;;;;;;;;2570476;23;20118;-95
2023/08/20 03:08:00;;;;;;;14.55;11.98;;;;;;;;;;2570555;23;20449;-95
2023/08/20 03:09:00;;;;;;;15.07;12.25;;;;;;;;;;2586994;23;20011;-94
2023/08/20 03:10:02;;;;;;;17.15;12.23;;;;;;;;;;2590559;22;19992;-94
2023/08/20 03:11:03;;;;;;;14.23;12.48;;;;;;;;;;2570271;23;20454;-96
2023/08/20 03:12:03;;;;;;;16.48;12.45;;;;;;;;;;2582329;23;20000;-96
2023/08/20 03:13:04;;;;;;;15.48;11.82;;;;;;;;;;2582994;23;20088;-95
2023/08/20 03:14:04;;;;;;;16.38;12.50;;;;;;;;;;2570550;23;20063;-95
2023/08/20 03:15:06;;;;;;;14.73;12.63;;;;;;;;;;2570285;23;20422;-94
2023/08/20 03:16:07;;;;;;;15.95;11.95;;;;;;;;;;2576167;23;20462;-94
2023/08/20 03:17:07;;;;;;;13.35;11.88;;;;;;;;;;2581631;22;20012;-95
2023/08/20 03:18:08;;;;;;;15.25;12.00;;;;;;;;;;2594506;22;20012;-94
2023/08/20 03:19:08;;;;;;;13.48;11.90;;;;;;;;;;2594494;22;20059;-94
2023/08/20 03:20:09;;;;;;;14.65;11.60;;;;;;;;;;2596117;22;19996;-94
2023/08/20 03:21:10;;;;;;;13.43;11.52;;;;;;;;;;2593324;22;20016;-94
2023/08/20 03:22:10;;;;;;;16.35;12.18;;;;;;;;;;2580993;22;19997;-95
2023/08/20 03:23:10;;;;;;;14.40;11.23;;;;;;;;;;2583499;23;20062;-95
2023/08/20 03:24:11;;;;;;;14.68;11.88;;;;;;;;;;2570952;23;20080;-96
2023/08/20 03:25:12;;;;;;;15.85;11.65;;;;;;;;;;2584489;22;20094;-96
2023/08/20 03:26:12;;;;;;;13.65;11.32;;;;;;;;;;2583561;23;20008;-96
2023/08/20 03:27:13;;;;;;;13.65;11.50;;;;;;;;;;2570938;23;20015;-95
2023/08/20 03:28:18;;;;;;;15.27;11.68;;;;;;;;;;2584242;23;20000;-96
2023/08/20 03:32:55;;;;;;;12.05;10.73;;;;;;;;;;2581073;23;20024;-95
2023/08/20 03:33:56;;;;;;;13.75;11.40;;;;;;;;;;2566535;23;20367;-95
2023/08/20 03:34:58;;;;;;;16.13;11.57;;;;;;;;;;2557521;23;20016;-96
2023/08/20 03:35:59;;;;;;;16.27;11.52;;;;;;;;;;2568529;23;20019;-96
2023/08/20 03:36:59;;;;;;;16.77;11.55;;;;;;;;;;2580532;22;20031;-96
2023/08/20 03:38:00;;;;;;;14.75;11.45;;;;;;;;;;2581415;22;20005;-96
2023/08/20 03:39:00;;;;;;;14.35;11.98;;;;;;;;;;2581690;22;19993;-96
2023/08/20 03:40:04;;;;;;;14.20;11.40;;;;;;;;;;2580316;23;19997;-96
2023/08/20 03:41:05;;;;;;;15.95;11.65;;;;;;;;;;2564868;23;20013;-96
2023/08/20 03:42:07;;;;;;;15.85;11.77;;;;;;;;;;2551505;23;20060;-96
2023/08/20 03:43:07;;;;;;;14.93;11.43;;;;;;;;;;2575722;23;19992;-96
2023/08/20 03:44:09;;;;;;;13.77;12.05;;;;;;;;;;2587299;23;20083;-96
2023/08/20 03:45:09;;;;;;;17.00;11.57;;;;;;;;;;2574704;23;20012;-96
2023/08/20 03:46:09;;;;;;;15.23;11.07;;;;;;;;;;2560909;23;20495;-96
2023/08/20 03:47:11;;;;;;;13.38;11.55;;;;;;;;;;2562378;23;20012;-96
2023/08/20 03:48:11;;;;;;;14.98;11.50;;;;;;;;;;2551750;23;20013;-96
2023/08/20 03:49:12;;;;;;;14.02;11.45;;;;;;;;;;2563044;23;20005;-96
2023/08/20 03:50:12;;;;;;;15.35;11.48;;;;;;;;;;2562644;23;20050;-96
2023/08/20 03:51:13;;;;;;;13.77;10.95;;;;;;;;;;2561332;23;20020;-96
2023/08/20 03:52:14;;;;;;;12.00;10.75;;;;;;;;;;2575527;23;20004;-96
2023/08/20 03:53:17;;;;;;;16.05;11.25;;;;;;;;;;2559435;23;20346;-96
2023/08/20 03:54:20;;;;;;;17.95;11.70;;;;;;;;;;2574120;23;20004;-96
2023/08/20 03:55:21;;;;;;;12.85;10.82;;;;;;;;;;2587754;23;20034;-96
2023/08/20 03:56:22;;;;;;;15.75;11.68;;;;;;;;;;2586343;23;20027;-96
2023/08/20 03:57:22;;;;;;;15.43;11.15;;;;;;;;;;2583692;22;20027;-95
2023/08/20 03:58:23;;;;;;;14.35;11.15;;;;;;;;;;2571126;23;20008;-95
2023/08/20 03:59:23;;;;;;;15.52;11.98;;;;;;;;;;2571493;23;20015;-95
2023/08/20 04:00:24;;;;;;;15.13;11.35;;;;;;;;;;2572665;23;20011;-95
2023/08/20 04:01:24;;;;;;;14.30;11.80;;;;;;;;;;2559079;23;20068;-95
2023/08/20 04:02:29;;;;;;;15.30;11.80;;;;;;;;;;2563807;23;20009;-96
2023/08/20 04:03:29;;;;;;;13.27;10.73;;;;;;;;;;2559672;23;20367;-95
2023/08/20 04:04:30;;;;;;;13.48;11.52;;;;;;;;;;2582500;22;20073;-95
2023/08/20 04:05:38;;;;;;;15.50;11.45;;;;;;;;;;2568572;23;20024;-94
2023/08/20 04:06:39;;;;;;;16.65;11.77;;;;;;;;;;2572841;23;20012;-94
2023/08/20 04:07:39;;;;;;;13.82;11.18;;;;;;;;;;2574508;23;20000;-95
2023/08/20 04:08:40;;;;;;;12.75;10.80;;;;;;;;;;2570659;23;19996;-94
2023/08/20 04:09:42;;;;;;;14.13;11.10;;;;;;;;;;2558179;23;20000;-94
2023/08/20 04:10:46;;;;;;;14.23;10.50;;;;;;;;;;2562086;23;19997;-95
2023/08/20 04:11:47;;;;;;;12.15;10.40;;;;;;;;;;2561979;23;20049;-94
2023/08/20 04:12:47;;;;;;;13.73;10.52;;;;;;;;;;2558318;23;20009;-95
2023/08/20 04:13:48;;;;;;;13.25;10.43;;;;;;;;;;2570602;23;20020;-93
2023/08/20 04:14:49;;;;;;;13.38;10.50;;;;;;;;;;2570674;23;19997;-94
2023/08/20 04:15:49;;;;;;;11.20;10.00;;;;;;;;;;2570743;23;20023;-94
2023/08/20 04:16:50;;;;;;;13.05;10.00;;;;;;;;;;2570604;23;20000;-94
2023/08/20 04:17:51;;;;;;;12.65;11.13;;;;;;;;;;2573720;23;20104;-94
2023/08/20 04:18:51;;;;;;;12.40;10.93;;;;;;;;;;2570442;23;20362;-94
2023/08/20 04:19:52;;;;;;;15.30;10.70;;;;;;;;;;2573331;23;19992;-95
2023/08/20 04:20:53;;;;;;;14.68;10.88;;;;;;;;;;2570482;23;19996;-96
2023/08/20 04:21:54;;;;;;;17.08;10.88;;;;;;;;;;2558055;23;19997;-95
2023/08/20 04:22:54;;;;;;;13.63;11.00;;;;;;;;;;2570433;23;20095;-95
2023/08/20 04:23:55;;;;;;;14.82;10.30;;;;;;;;;;2570634;23;20043;-94
2023/08/20 04:24:55;;;;;;;14.45;10.88;;;;;;;;;;2571137;23;20013;-94
2023/08/20 04:25:55;;;;;;;13.05;10.65;;;;;;;;;;2572877;23;20030;-95
2023/08/20 04:26:56;;;;;;;14.02;11.40;;;;;;;;;;2570361;23;20036;-94
2023/08/20 04:27:58;;;;;;;14.70;10.95;;;;;;;;;;2558125;23;20005;-95
2023/08/20 04:28:59;;;;;;;14.52;11.00;;;;;;;;;;2570748;23;20009;-96
2023/08/20 04:29:59;;;;;;;15.40;10.85;;;;;;;;;;2583449;23;20004;-95
2023/08/20 04:31:00;;;;;;;14.55;10.38;;;;;;;;;;2571323;23;20008;-96
2023/08/20 04:32:01;;;;;;;15.65;11.30;;;;;;;;;;2571125;23;20023;-95
2023/08/20 04:33:06;;;;;;;16.60;11.07;;;;;;;;;;2573156;23;20124;-94
2023/08/20 04:34:06;;;;;;;12.95;10.25;;;;;;;;;;2573213;23;20177;-95
2023/08/20 04:35:07;;;;;;;13.25;10.88;;;;;;;;;;2572810;23;20013;-96
2023/08/20 04:36:07;;;;;;;14.32;10.52;;;;;;;;;;2582793;23;20030;-94
2023/08/20 04:37:08;;;;;;;13.50;10.18;;;;;;;;;;2570125;23;20004;-94
2023/08/20 04:38:08;;;;;;;15.25;10.82;;;;;;;;;;2558032;23;20454;-95
2023/08/20 04:39:10;;;;;;;13.00;10.57;;;;;;;;;;2557864;23;20100;-95
2023/08/20 04:40:11;;;;;;;16.33;11.07;;;;;;;;;;2570414;23;20059;-95
2023/08/20 04:41:11;;;;;;;13.95;10.00;;;;;;;;;;2558206;23;20072;-96
2023/08/20 04:42:12;;;;;;;12.32;10.00;;;;;;;;;;2557638;23;20488;-94
2023/08/20 04:43:12;;;;;;;13.98;10.95;;;;;;;;;;2570933;23;20001;-95
2023/08/20 04:44:13;;;;;;;17.13;10.60;;;;;;;;;;2571051;23;20009;-95
2023/08/20 04:45:13;;;;;;;11.50;10.07;;;;;;;;;;2584910;23;20023;-96
2023/08/20 04:46:14;;;;;;;10.98;9.75;;;;;;;;;;2572525;23;20009;-95
2023/08/20 04:47:22;;;;;;;13.07;9.32;;;;;;;;;;2576206;23;20040;-96
2023/08/20 04:48:22;;;;;;;16.45;10.15;;;;;;;;;;2574142;23;20005;-92
2023/08/20 04:49:25;;;;;;;13.38;10.13;;;;;;;;;;2571837;23;20345;-93
2023/08/20 04:50:26;;;;;;;12.10;9.55;;;;;;;;;;2583879;23;20442;-93
2023/08/20 04:51:26;;;;;;;11.57;9.35;;;;;;;;;;2591922;22;20015;-95
2023/08/20 04:52:27;;;;;;;13.98;10.02;;;;;;;;;;2567623;23;20112;-94
2023/08/20 04:53:27;;;;;;;10.63;8.68;;;;;;;;;;2558849;23;20348;-95
2023/08/20 04:54:27;;;;;;;14.10;9.60;;;;;;;;;;2563420;23;20005;-93
2023/08/20 04:55:28;;;;;;;10.80;8.95;;;;;;;;;;2560932;23;20008;-96
2023/08/20 04:56:30;;;;;;;10.65;9.00;;;;;;;;;;2558954;23;20422;-96
2023/08/20 04:57:30;;;;;;;9.90;8.27;;;;;;;;;;2558017;23;20008;-93
2023/08/20 04:58:31;;;;;;;10.93;8.88;;;;;;;;;;2571588;23;20000;-96
2023/08/20 04:59:31;;;;;;;9.90;8.35;;;;;;;;;;2570680;23;20447;-95
2023/08/20 05:00:31;;;;;;;10.15;8.60;;;;;;;;;;2558008;23;20419;-94
2023/08/20 05:01:32;;;;;;;9.50;8.38;;;;;;;;;;2558355;23;20350;-95
2023/08/20 05:02:32;;;;;;;9.82;8.07;;;;;;;;;;2558469;23;20020;-94
2023/08/20 05:03:33;;;;;;;8.77;7.88;;;;;;;;;;2558567;23;20005;-95
2023/08/20 05:04:33;;;;;;;9.65;8.30;;;;;;;;;;2558624;23;20513;-94
2023/08/20 05:05:33;;;;;;;9.48;8.45;;;;;;;;;;2558558;23;20032;-94
2023/08/20 05:06:34;;;;;;;9.68;7.90;;;;;;;;;;2559098;23;20012;-93
2023/08/20 05:07:34;;;;;;;12.65;8.63;;;;;;;;;;2561108;23;20072;-94
2023/08/20 05:08:35;;;;;;;9.53;8.43;;;;;;;;;;2136750;23;10315868;-94
2023/08/20 05:09:36;;;;;;;9.52;8.05;;;;;;;;;;2590247;23;19996;-94
2023/08/20 05:10:37;;;;;;;11.40;8.27;;;;;;;;;;2572788;23;20011;-94
2023/08/20 05:11:37;;;;;;;11.13;8.32;;;;;;;;;;2562050;23;20016;-95
2023/08/20 05:12:38;;;;;;;11.48;8.52;;;;;;;;;;2559516;23;19997;-95
2023/08/20 05:13:38;;;;;;;9.30;8.00;;;;;;;;;;2558354;23;20001;-96
2023/08/20 05:14:39;;;;;;;9.32;8.32;;;;;;;;;;2557860;23;20056;-95
2023/08/20 05:15:39;;;;;;;10.65;8.25;;;;;;;;;;2558057;23;20004;-95
2023/08/20 05:16:39;;;;;;;10.90;8.10;;;;;;;;;;2571222;23;20024;-95
2023/08/20 05:17:40;;;;;;;10.95;8.57;;;;;;;;;;2575619;23;20044;-95
2023/08/20 05:18:41;;;;;;;11.10;9.15;;;;;;;;;;2575502;23;20042;-95
2023/08/20 05:19:43;;;;;;;11.40;9.23;;;;;;;;;;2572527;23;20035;-95
2023/08/20 05:20:44;;;;;;;12.63;8.80;;;;;;;;;;2559392;23;20005;-96
2023/08/20 05:21:45;;;;;;;9.68;8.02;;;;;;;;;;2560988;23;20000;-94
2023/08/20 05:22:45;;;;;;;10.98;8.93;;;;;;;;;;2588326;23;19992;-96
2023/08/20 05:23:46;;;;;;;9.93;8.13;;;;;;;;;;2582995;23;20522;-94
2023/08/20 05:24:47;;;;;;;10.15;8.70;;;;;;;;;;2570373;23;20008;-94
2023/08/20 05:25:48;;;;;;;9.77;8.65;;;;;;;;;;2570810;23;20059;-95
2023/08/20 05:27:09;;;;;;;10.32;8.70;;;;;;;;;;2574295;23;20004;-95
2023/08/20 05:28:10;;;;;;;10.00;8.75;;;;;;;;;;2563061;23;20024;-96
2023/08/20 05:29:11;;;;;;;9.73;8.75;;;;;;;;;;2548210;23;20531;-95
2023/08/20 05:30:12;;;;;;;12.20;9.80;;;;;;;;;;2558452;23;20009;-94
2023/08/20 05:31:12;;;;;;;10.93;9.00;;;;;;;;;;2570295;23;20009;-94
2023/08/20 05:32:18;;;;;;;11.75;9.20;;;;;;;;;;2572471;23;20005;-95
2023/08/20 05:33:18;;;;;;;11.77;8.77;;;;;;;;;;2560464;23;20037;-94
2023/08/20 05:34:19;;;;;;;10.90;8.75;;;;;;;;;;2558248;23;20429;-96
2023/08/20 05:35:19;;;;;;;10.52;9.05;;;;;;;;;;2558032;23;20033;-96
2023/08/20 05:36:19;;;;;;;10.90;8.63;;;;;;;;;;2559311;23;20059;-95
2023/08/20 05:37:20;;;;;;;11.02;9.00;;;;;;;;;;2572142;23;20078;-92
2023/08/20 05:38:20;;;;;;;10.30;8.32;;;;;;;;;;2565092;23;20001;-94
2023/08/20 05:39:21;;;;;;;12.00;8.80;;;;;;;;;;2577641;23;20001;-95
2023/08/20 05:40:21;;;;;;;10.73;8.70;;;;;;;;;;2574507;23;20033;-94
2023/08/20 05:41:22;;;;;;;9.90;8.63;;;;;;;;;;2582092;22;19988;-96
2023/08/20 05:42:22;;;;;;;12.02;8.20;;;;;;;;;;2581794;22;20007;-96
2023/08/20 05:43:24;;;;;;;9.20;8.10;;;;;;;;;;2581842;22;20009;-96
2023/08/20 05:44:25;;;;;;;13.23;8.73;;;;;;;;;;2577359;23;20012;-96
2023/08/20 05:45:25;;;;;;;11.73;8.13;;;;;;;;;;2574158;23;20434;-96
2023/08/20 05:46:25;;;;;;;12.35;8.38;;;;;;;;;;2564040;23;20037;-96
2023/08/20 05:47:26;;;;;;;10.68;8.45;;;;;;;;;;2561162;23;20013;-96
2023/08/20 05:48:26;;;;;;;11.07;8.07;;;;;;;;;;2572051;23;20000;-96
2023/08/20 05:49:27;;;;;;;9.00;7.32;;;;;;;;;;2583263;23;20439;-96
2023/08/20 05:50:27;;;;;;;9.60;7.47;;;;;;;;;;2570976;23;20031;-96
2023/08/20 05:51:28;;;;;;;8.93;7.90;;;;;;;;;;2576545;23;20017;-96
2023/08/20 05:54:25;;;;;;;10.88;8.70;;;;;;;;;;2583010;23;20028;-95
2023/08/20 05:55:25;;;;;;;10.48;7.90;;;;;;;;;;2582717;23;20012;-96
2023/08/20 05:56:25;;;;;;;9.93;8.18;;;;;;;;;;2582771;23;20082;-95
2023/08/20 05:57:26;;;;;;;9.20;7.95;;;;;;;;;;2570453;23;20431;-94
2023/08/20 05:58:26;;;;;;;10.45;7.70;;;;;;;;;;2571382;23;20000;-94
2023/08/20 05:59:27;;;;;;;8.57;7.75;;;;;;;;;;2569938;23;20119;-94
2023/08/20 06:00:27;;;;;;;9.63;8.23;;;;;;;;;;2583230;23;20487;-96
2023/08/20 06:01:28;;;;;;;9.63;8.10;;;;;;;;;;2570948;23;20008;-95
2023/08/20 06:02:28;;;;;;;9.13;8.23;;;;;;;;;;2570897;23;20593;-96
2023/08/20 06:03:29;;;;;;;9.77;8.77;;;;;;;;;;2570094;23;20011;-94
2023/08/20 06:04:30;;;;;;;8.30;7.50;;;;;;;;;;2557382;23;20013;-95
2023/08/20 06:05:31;;;;;;;9.45;8.00;;;;;;;;;;2557603;23;20008;-96
2023/08/20 06:06:34;;;;;;;13.40;8.35;;;;;;;;;;2569977;23;20009;-96
2023/08/20 06:07:34;;;;;;;8.73;7.82;;;;;;;;;;2582694;23;20036;-95
2023/08/20 06:08:35;;;;;;;10.20;7.78;;;;;;;;;;2570048;23;20086;-95
2023/08/20 06:09:35;;;;;;;8.77;7.90;;;;;;;;;;2557837;23;20509;-94
2023/08/20 06:10:36;;;;;;;10.57;8.13;;;;;;;;;;2574008;23;20505;-94
2023/08/20 06:11:36;;;;;;;8.50;7.70;;;;;;;;;;2582412;23;19996;-94
2023/08/20 06:12:38;;;;;;;9.50;7.95;;;;;;;;;;2582116;23;19997;-94
2023/08/20 06:13:38;;;;;;;8.00;7.25;;;;;;;;;;2574058;23;20075;-94
2023/08/20 06:14:38;;;;;;;10.27;8.40;;;;;;;;;;2582147;23;20003;-94
2023/08/20 06:15:39;;;;;;;9.60;8.27;;;;;;;;;;2569827;23;20107;-95
2023/08/20 06:16:39;;;;;;;9.10;7.93;;;;;;;;;;2557499;23;20005;-94
2023/08/20 06:17:40;;;;;;;12.95;8.63;;;;;;;;;;2573372;23;20450;-94
2023/08/20 06:18:41;;;;;;;9.07;8.18;;;;;;;;;;2569894;23;20076;-95
2023/08/20 06:19:42;;;;;;;9.05;7.72;;;;;;;;;;2557482;23;20056;-95
2023/08/20 06:20:42;;;;;;;8.55;7.45;;;;;;;;;;2573613;23;20074;-95
2023/08/20 06:21:42;;;;;;;9.45;7.63;;;;;;;;;;2569842;23;20051;-94
2023/08/20 06:22:43;;;;;;;8.52;7.63;;;;;;;;;;2573547;23;20061;-96
2023/08/20 06:23:43;;;;;;;8.82;7.47;;;;;;;;;;2569760;23;19996;-94
2023/08/20 06:24:43;;;;;;;8.57;7.78;;;;;;;;;;2563923;23;19989;-94
2023/08/20 06:25:44;;;;;;;11.55;7.93;;;;;;;;;;2567296;23;19981;-92
2023/08/20 06:26:44;;;;;;;10.90;8.15;;;;;;;;;;2574409;23;19996;-95
2023/08/20 06:27:45;;;;;;;8.15;7.35;;;;;;;;;;2587687;23;20022;-95
2023/08/20 06:28:45;;;;;;;8.73;7.82;;;;;;;;;;2582465;23;20016;-96
2023/08/20 06:29:46;;;;;;;8.90;8.00;;;;;;;;;;2569893;23;20046;-94
2023/08/20 06:30:46;;;;;;;9.63;8.48;;;;;;;;;;2557751;23;20047;-95
2023/08/20 06:31:46;;;;;;;9.05;7.70;;;;;;;;;;2557787;23;20486;-94
2023/08/20 06:32:47;;;;;;;9.43;8.40;;;;;;;;;;2557289;23;20506;-93
2023/08/20 06:33:47;;;;;;;9.25;8.35;;;;;;;;;;2569651;23;20009;-94
2023/08/20 06:34:48;;;;;;;13.05;8.90;;;;;;;;;;2557595;23;20059;-94
2023/08/20 06:35:48;;;;;;;10.40;9.10;;;;;;;;;;2573278;23;20035;-94
2023/08/20 06:36:49;;;;;;;10.90;9.13;;;;;;;;;;2570054;23;20320;-95
2023/08/20 06:37:49;;;;;;;9.93;8.88;;;;;;;;;;2569844;23;20094;-95
2023/08/20 06:38:49;;;;;;;12.32;9.18;;;;;;;;;;2557696;23;20080;-95
2023/08/20 06:39:50;;;;;;;10.77;8.88;;;;;;;;;;2557072;23;20005;-96
2023/08/20 06:40:51;;;;;;;12.30;8.88;;;;;;;;;;2557261;23;20514;-94
2023/08/20 06:41:51;;;;;;;10.07;8.30;;;;;;;;;;2557430;23;20028;-95
2023/08/20 06:42:52;;;;;;;9.95;8.95;;;;;;;;;;2557689;23;20395;-96
2023/08/20 06:43:52;;;;;;;10.80;8.93;;;;;;;;;;2558047;23;20375;-96
2023/08/20 06:44:53;;;;;;;10.38;8.80;;;;;;;;;;2557566;23;20081;-95
2023/08/20 06:45:53;;;;;;;;;;;;;;;;;;2120103;23;10253071;-95
2023/08/20 06:46:53;;;;;;;10.18;8.65;;;;;;;;;;2557387;23;19909;-94
2023/08/20 06:47:54;;;;;;;11.77;9.68;;;;;;;;;;2573058;23;20004;-95
2023/08/20 06:48:54;;;;;;;10.52;9.32;;;;;;;;;;2570002;23;20016;-95
2023/08/20 06:49:55;;;;;;;9.77;8.77;;;;;;;;;;2558399;23;20167;-96
2023/08/20 06:50:55;;;;;;;10.63;9.15;;;;;;;;;;2557812;23;20071;-96
2023/08/20 06:51:57;;;;;;;9.57;8.57;;;;;;;;;;2558895;23;20080;-96
2023/08/20 06:52:58;;;;;;;9.57;8.55;;;;;;;;;;2571109;23;20068;-95
2023/08/20 06:53:58;;;;;;;10.18;8.82;;;;;;;;;;2573186;23;20004;-96
2023/08/20 06:54:58;;;;;;;9.63;8.63;;;;;;;;;;2558072;23;20012;-95
2023/08/20 06:55:59;;;;;;;9.77;8.50;;;;;;;;;;2557662;23;20055;-95
2023/08/20 06:56:59;;;;;;;11.25;8.70;;;;;;;;;;2543027;23;20021;-95
2023/08/20 06:58:00;;;;;;;9.77;8.77;;;;;;;;;;2573569;23;20037;-96
2023/08/20 06:59:04;;;;;;;11.75;9.30;;;;;;;;;;2586854;23;20031;-95
2023/08/20 07:00:05;;;;;;;9.90;8.77;;;;;;;;;;2592075;23;19984;-91
2023/08/20 07:01:09;;;;;;;12.57;8.98;;;;;;;;;;2595751;22;19988;-90
2023/08/20 07:02:10;;;;;;;9.80;7.97;;;;;;;;;;2578552;22;20008;-89
2023/08/20 07:03:10;;;;;;;9.18;7.72;;;;;;;;;;2563536;23;20005;-91
2023/08/20 07:04:12;;;;;;;10.52;8.90;;;;;;;;;;2573079;23;20020;-92
2023/08/20 07:05:14;;;;;;;10.93;8.13;;;;;;;;;;2583643;23;20000;-92
2023/08/20 07:06:18;;;;;;;11.23;9.25;;;;;;;;;;2584469;23;20035;-91
2023/08/20 07:07:18;;;;;;;9.18;8.23;;;;;;;;;;2583089;23;20450;-92
2023/08/20 07:08:22;;;;;;;9.75;7.85;;;;;;;;;;2570174;23;20126;-91
2023/08/20 07:09:28;;;;;;;8.20;7.40;;;;;;;;;;2561394;23;20056;-91
2023/08/20 07:13:28;;;;;;;9.48;8.38;;;;;;;;;;2584288;23;20082;-91
2023/08/20 07:14:29;;;;;;;10.63;8.13;;;;;;;;;;2582703;23;20007;-91
2023/08/20 07:15:29;;;;;;;8.65;7.32;;;;;;;;;;2582479;23;20464;-90
2023/08/20 07:16:31;;;;;;;8.85;7.22;;;;;;;;;;2582188;23;20000;-91
2023/08/20 07:17:32;;;;;;;9.43;7.20;;;;;;;;;;2569612;23;20008;-90
2023/08/20 07:18:32;;;;;;;8.32;7.45;;;;;;;;;;2557943;23;20039;-90
2023/08/20 07:19:33;;;;;;;7.78;7.05;;;;;;;;;;2559705;23;20004;-90
2023/08/20 07:20:33;;;;;;;7.47;6.78;;;;;;;;;;2573426;23;20066;-91
2023/08/20 07:21:34;;;;;;;7.93;7.13;;;;;;;;;;2574785;23;20005;-90
2023/08/20 07:22:34;;;;;;;7.55;6.85;;;;;;;;;;2586188;23;20461;-90
2023/08/20 07:23:35;;;;;;;7.55;6.85;;;;;;;;;;2585344;23;20044;-89
2023/08/20 07:24:35;;;;;;;10.02;7.13;;;;;;;;;;2592370;23;20019;-89
2023/08/20 07:25:41;;;;;;;8.88;7.53;;;;;;;;;;2587400;23;20012;-89
2023/08/20 07:26:42;;;;;;;7.22;6.60;;;;;;;;;;2585943;23;20117;-89
2023/08/20 07:27:43;;;;;;;10.20;6.97;;;;;;;;;;2568356;23;20366;-90
2023/08/20 07:29:00;;;;;;;9.02;6.78;;;;;;;;;;2572325;23;20031;-90
2023/08/20 07:30:07;;;;;;;7.82;6.72;;;;;;;;;;2570164;23;20009;-95
2023/08/20 07:31:07;;;;;;;7.95;6.53;;;;;;;;;;2570609;23;20012;-94
2023/08/20 07:32:07;;;;;;;6.70;6.05;;;;;;;;;;2585552;23;20000;-95
2023/08/20 07:33:08;;;;;;;6.35;5.80;;;;;;;;;;2570299;23;20536;-95
2023/08/20 07:34:08;;;;;;;6.78;5.32;;;;;;;;;;2572419;23;20005;-96
2023/08/20 07:35:11;;;;;;;8.27;5.78;;;;;;;;;;2572373;23;20009;-94
2023/08/20 07:36:11;;;;;;;6.97;6.35;;;;;;;;;;2573879;23;20016;-96
2023/08/20 07:37:14;;;;;;;6.47;5.88;;;;;;;;;;2583893;23;20014;-96
2023/08/20 07:38:15;;;;;;;6.13;5.50;;;;;;;;;;2587171;23;20015;-96
2023/08/20 07:39:17;;;;;;;6.97;5.75;;;;;;;;;;2572318;23;20181;-94
2023/08/20 07:40:26;;;;;;;8.82;5.70;;;;;;;;;;2547042;23;20010;-96
2023/08/20 07:41:26;;;;;;;7.40;5.80;;;;;;;;;;2562817;23;20032;-95
2023/08/20 07:42:27;;;;;;;8.25;5.72;;;;;;;;;;2584821;23;20010;-96
2023/08/20 07:43:29;;;;;;;6.60;5.93;;;;;;;;;;2582343;23;20011;-95
2023/08/20 07:44:31;;;;;;;6.75;6.07;;;;;;;;;;2583083;23;20008;-95
2023/08/20 07:45:31;;;;;;;6.72;5.80;;;;;;;;;;2571006;23;20015;-96
2023/08/20 07:46:31;;;;;;;6.53;5.93;;;;;;;;;;2570876;23;20374;-96
2023/08/20 07:47:32;;;;;;;6.18;5.57;;;;;;;;;;2570889;23;20001;-95
2023/08/20 07:48:32;;;;;;;6.05;5.55;;;;;;;;;;2583673;23;20082;-96
2023/08/20 07:49:33;;;;;;;6.45;5.80;;;;;;;;;;2584197;22;20008;-96
2023/08/20 07:50:33;;;;;;;6.65;6.05;;;;;;;;;;2571267;23;20028;-96
2023/08/20 07:51:34;;;;;;;6.40;5.78;;;;;;;;;;2559461;23;20016;-95
2023/08/20 07:52:34;;;;;;;6.13;5.63;;;;;;;;;;2559183;23;20029;-96
2023/08/20 07:53:35;;;;;;;6.25;5.30;;;;;;;;;;2558923;23;20096;-96
2023/08/20 07:54:36;;;;;;;6.75;5.93;;;;;;;;;;2570532;23;19996;-94
2023/08/20 07:55:36;;;;;;;7.20;5.72;;;;;;;;;;2569776;23;20435;-96
2023/08/20 07:56:37;;;;;;;8.45;5.93;;;;;;;;;;2560076;23;20000;-95
2023/08/20 07:57:37;;;;;;;6.15;5.55;;;;;;;;;;2561798;23;20001;-95
2023/08/20 07:58:38;;;;;;;7.10;5.50;;;;;;;;;;2580517;23;20023;-95
2023/08/20 07:59:39;;;;;;;6.25;5.60;;;;;;;;;;2578557;23;20079;-95
2023/08/20 08:00:40;;;;;;;6.85;5.25;;;;;;;;;;2574849;23;20311;-93
2023/08/20 08:01:40;;;;;;;6.05;5.55;;;;;;;;;;2570149;23;20004;-95
2023/08/20 08:02:41;;;;;;;7.05;5.90;;;;;;;;;;2569668;23;20414;-95
2023/08/20 08:03:41;;;;;;;7.13;5.75;;;;;;;;;;2557401;23;20025;-95
2023/08/20 08:04:42;;;;;;;8.02;5.47;;;;;;;;;;2557670;23;19996;-95
2023/08/20 08:05:50;;;;;;;6.20;5.30;;;;;;;;;;2557606;23;20001;-95
2023/08/20 08:06:50;;;;;;;6.43;5.20;;;;;;;;;;2559486;23;20072;-96
2023/08/20 08:07:51;;;;;;;5.55;4.75;;;;;;;;;;2549080;23;20056;-96
2023/08/20 08:08:51;;;;;;;5.53;4.88;;;;;;;;;;2556313;23;19993;-96
2023/08/20 08:09:52;;;;;;;5.95;5.18;;;;;;;;;;2584696;23;20031;-95
2023/08/20 08:10:52;;;;;;;5.40;4.90;;;;;;;;;;2593427;22;19999;-95
2023/08/20 08:11:54;;;;;;;5.85;4.97;;;;;;;;;;2573155;23;20008;-96
2023/08/20 08:12:55;;;;;;;6.35;5.10;;;;;;;;;;2570595;23;20050;-96
2023/08/20 08:13:55;;;;;;;5.70;4.78;;;;;;;;;;2570560;23;20539;-96
2023/08/20 08:14:55;;;;;;;5.03;4.55;;;;;;;;;;2570186;23;20438;-96
2023/08/20 08:15:56;;;;;;;6.00;5.30;;;;;;;;;;2569881;23;20015;-96
2023/08/20 08:16:57;;;;;;;5.68;5.07;;;;;;;;;;2557302;23;20328;-96
2023/08/20 08:17:57;;;;;;;7.00;4.90;;;;;;;;;;2569923;23;20004;-96
2023/08/20 08:18:58;;;;;;;5.57;4.82;;;;;;;;;;2583074;23;20445;-96
2023/08/20 08:19:58;;;;;;;7.93;4.85;;;;;;;;;;2569358;23;20451;-96
2023/08/20 08:20:59;;;;;;;6.05;4.10;;;;;;;;;;2573012;23;20020;-95